Time;durP1;ratioP1;P1;durP2;ratioP2;P2;SDS_P1;SDS_P2;PMS_P1;PMS_P2;Temp;Humidity;BMP_temperature;BMP_pressure;BME280_temperature;BME280_humidity;BME280_pressure;Samples;Min_cycle;Max_cycle;Signal;HPM_P1;HPM_P2
2023/01/05 00:01:10;;;;;;;10.03;5.62;;;;;;;2.86;62.08;100469.67;1723565;81;21071;-60
2023/01/05 00:03:38;;;;;;;6.25;2.45;;;;;;;2.85;62.13;100464.94;1722031;83;21062;-60
2023/01/05 00:06:10;;;;;;;5.25;2.40;;;;;;;2.85;62.24;100462.34;1724017;83;21046;-60
2023/01/05 00:08:37;;;;;;;5.55;2.35;;;;;;;2.85;62.24;100456.30;1718508;81;21575;-60
2023/01/05 00:22:30;;;;;;;6.08;2.67;;;;;;;2.74;62.57;100442.49;1701645;82;21091;-60
2023/01/05 00:25:05;;;;;;;11.70;4.15;;;;;;;2.76;62.64;100431.59;1752242;81;21259;-60
2023/01/05 00:27:31;;;;;;;4.58;1.98;;;;;;;2.75;62.74;100428.13;1751288;80;21042;-60
2023/01/05 00:29:58;;;;;;;5.35;2.15;;;;;;;2.77;62.73;100421.57;1744574;81;21505;-60
2023/01/05 00:32:27;;;;;;;8.00;5.67;;;;;;;2.74;62.79;100418.67;1754225;80;21508;-62
2023/01/05 00:34:55;;;;;;;9.20;2.58;;;;;;;2.77;62.79;100404.67;1743694;81;21063;-62
2023/01/05 00:37:23;;;;;;;6.92;2.55;;;;;;;2.76;62.79;100396.52;1736779;81;21198;-59
2023/01/05 00:39:51;;;;;;;7.15;2.77;;;;;;;2.77;62.84;100388.66;1735566;81;21030;-60
2023/01/05 00:42:18;;;;;;;6.37;2.65;;;;;;;2.76;62.90;100386.13;1736371;81;21691;-60
2023/01/05 00:44:46;;;;;;;8.75;5.62;;;;;;;2.77;62.98;100382.16;1745747;79;21360;-60
2023/01/05 00:47:13;;;;;;;6.55;2.30;;;;;;;2.77;62.97;100368.30;1752754;80;21587;-60
2023/01/05 00:49:39;;;;;;;7.92;2.85;;;;;;;2.79;63.00;100348.27;1745245;80;21317;-60
2023/01/05 00:52:07;;;;;;;9.38;3.15;;;;;;;2.77;63.00;100337.98;1746263;81;21572;-60
2023/01/05 00:54:35;;;;;;;9.53;3.20;;;;;;;2.78;63.03;100325.35;1740149;81;21753;-65
2023/01/05 00:57:01;;;;;;;12.55;3.30;;;;;;;2.78;63.06;100316.26;1736202;81;21593;-61
2023/01/05 00:59:28;;;;;;;6.60;2.58;;;;;;;2.79;63.06;100319.25;1741893;80;21042;-61
2023/01/05 01:01:54;;;;;;;11.80;6.37;;;;;;;2.78;63.06;100312.36;1741127;81;21939;-62
2023/01/05 01:04:22;;;;;;;6.65;2.50;;;;;;;2.82;63.02;100300.52;1751823;80;21017;-61
2023/01/05 01:06:49;;;;;;;9.78;5.62;;;;;;;2.83;63.07;100310.02;1746766;81;21065;-61
2023/01/05 01:09:17;;;;;;;6.97;2.85;;;;;;;2.85;63.09;100304.27;1756677;80;21000;-61
2023/01/05 01:11:44;;;;;;;9.10;2.45;;;;;;;2.88;63.10;100297.63;1737349;81;21059;-61
2023/01/05 01:14:12;;;;;;;9.15;5.30;;;;;;;2.93;63.01;100283.48;1745587;81;21246;-61
2023/01/05 01:16:41;;;;;;;5.97;2.27;;;;;;;2.93;62.93;100259.26;1698649;83;21706;-60
2023/01/05 01:19:22;;;;;;;5.40;2.35;;;;;;;2.95;62.91;100241.81;1682880;83;21055;-60
2023/01/05 01:21:49;;;;;;;9.73;3.60;;;;;;;2.96;62.76;100238.31;1744093;81;21115;-59
2023/01/05 01:24:22;;;;;;;5.75;2.25;;;;;;;2.98;62.82;100225.60;1761004;79;21047;-61
2023/01/05 01:26:48;;;;;;;7.22;2.37;;;;;;;2.96;62.87;100224.84;1750158;80;21216;-63
2023/01/05 01:29:16;;;;;;;5.97;2.10;;;;;;;2.98;62.80;100228.67;1754735;80;21056;-62
2023/01/05 01:31:46;;;;;;;5.45;2.02;;;;;;;2.96;62.82;100225.31;1755474;80;21574;-60
2023/01/05 01:34:13;;;;;;;6.30;2.50;;;;;;;2.94;62.89;100212.39;1743560;80;21061;-60
2023/01/05 01:36:41;;;;;;;7.92;2.87;;;;;;;2.94;62.92;100211.09;1745221;80;21055;-60
2023/01/05 01:39:08;;;;;;;8.60;5.55;;;;;;;2.97;62.90;100206.19;1748135;80;21314;-63
2023/01/05 01:41:37;;;;;;;5.85;2.02;;;;;;;2.94;62.84;100198.10;1747730;80;21033;-61
2023/01/05 01:44:50;;;;;;;7.17;2.35;;;;;;;2.97;62.82;100186.69;1751891;79;21028;-61
2023/01/05 01:47:29;;;;;;;6.70;2.95;;;;;;;2.95;62.90;100176.37;1756075;80;21192;-61
2023/01/05 01:49:58;;;;;;;9.30;6.05;;;;;;;2.99;62.87;100177.05;1756678;79;21301;-61
2023/01/05 01:52:26;;;;;;;4.80;2.05;;;;;;;2.98;62.84;100164.98;1747203;80;21245;-60
2023/01/05 01:54:53;;;;;;;7.10;2.33;;;;;;;3.01;62.83;100148.38;1751530;80;21006;-60
2023/01/05 01:57:19;;;;;;;5.30;2.08;;;;;;;3.01;62.87;100144.48;1742474;80;21047;-62
2023/01/05 01:59:46;;;;;;;6.10;3.62;;;;;;;3.02;62.89;100131.40;1758389;80;21114;-61
2023/01/05 02:02:13;;;;;;;8.50;2.70;;;;;;;3.02;62.91;100120.17;1757968;79;21043;-61
2023/01/05 02:04:40;;;;;;;7.30;3.00;;;;;;;3.03;62.95;100108.87;1758975;80;21280;-62
2023/01/05 02:07:07;;;;;;;7.33;2.92;;;;;;;3.03;62.92;100098.00;1751796;80;21585;-61
2023/01/05 02:09:35;;;;;;;11.05;3.58;;;;;;;3.04;62.97;100093.16;1761372;80;21071;-61
2023/01/05 02:12:38;;;;;;;6.35;3.00;;;;;;;3.05;63.02;100087.52;1749520;80;21603;-62
2023/01/05 02:15:23;;;;;;;6.97;2.70;;;;;;;3.09;63.00;100079.48;1760521;79;21062;-60
2023/01/05 02:18:24;;;;;;;9.45;3.60;;;;;;;3.10;62.98;100071.22;1758956;80;22097;-60
2023/01/05 02:21:40;;;;;;;7.20;2.87;;;;;;;3.11;62.92;100050.34;1699138;82;21035;-60
2023/01/05 02:24:51;;;;;;;8.10;2.87;;;;;;;3.10;63.07;100055.62;1766644;80;21564;-61
2023/01/05 02:27:47;;;;;;;7.62;2.40;;;;;;;3.12;63.12;100041.59;1754645;80;21047;-62
2023/01/05 02:30:41;;;;;;;7.83;3.45;;;;;;;3.11;63.06;100031.28;1753849;80;21099;-61
2023/01/05 02:33:42;;;;;;;7.20;3.65;;;;;;;3.13;63.14;100020.36;1743020;80;21157;-61
2023/01/05 02:36:28;;;;;;;8.73;3.37;;;;;;;3.13;63.12;100017.28;1762696;80;21019;-62
2023/01/05 02:39:16;;;;;;;8.05;2.92;;;;;;;3.14;63.22;100010.31;1741984;80;21039;-62
2023/01/05 02:42:06;;;;;;;7.58;2.70;;;;;;;3.15;63.28;100012.84;1751044;80;21075;-61
2023/01/05 02:44:33;;;;;;;7.75;2.87;;;;;;;3.26;63.15;100001.00;1757811;79;21078;-61
2023/01/05 02:47:09;;;;;;;10.88;4.05;;;;;;;3.34;63.05;100001.41;1763902;80;21255;-61
2023/01/05 02:49:38;;;;;;;11.28;5.42;;;;;;;3.36;62.96;100000.86;1765959;80;21011;-60
2023/01/05 02:52:07;;;;;;;7.78;2.85;;;;;;;3.35;62.94;99994.00;1773176;80;21083;-60
2023/01/05 02:54:53;;;;;;;14.33;8.63;;;;;;;3.35;62.93;99988.33;1756784;80;21146;-60
2023/01/05 02:57:45;;;;;;;;;;;;;;;3.33;63.00;99982.84;1765868;80;20993;-61
2023/01/05 02:59:54;;;;;;;8.30;2.62;;;;;;;3.34;63.08;99989.23;1756125;80;21149;-61
2023/01/05 03:02:28;;;;;;;13.35;8.90;;;;;;;3.38;63.05;99987.77;1746036;80;21075;-63
2023/01/05 03:05:04;;;;;;;8.50;4.03;;;;;;;3.36;63.05;99985.25;1761122;80;21125;-62
2023/01/05 03:07:35;;;;;;;9.85;4.40;;;;;;;3.40;63.01;99969.87;1759764;80;21118;-63
2023/01/05 03:13:39;;;;;;;9.70;3.15;;;;;;;3.50;62.93;99965.81;1755038;80;21062;-62
2023/01/05 03:15:30;;;;;;;9.33;4.15;;;;;;;3.66;62.69;99953.22;1741388;80;21046;-62
2023/01/05 03:18:10;;;;;;;7.95;3.30;;;;;;;3.66;62.62;99942.80;1725698;82;21590;-63
2023/01/05 03:20:41;;;;;;;7.47;3.47;;;;;;;3.63;62.60;99928.23;1757102;79;21071;-62
2023/01/05 03:37:55;;;;;;;11.28;4.45;;;;;;;3.80;62.80;99881.69;1756812;81;21122;-60
2023/01/05 03:40:27;;;;;;;11.50;4.65;;;;;;;3.78;63.01;99880.09;1750990;81;21104;-60
2023/01/05 03:42:54;;;;;;;10.65;3.75;;;;;;;3.76;63.31;99884.08;1745713;81;21041;-60
2023/01/05 03:45:23;;;;;;;13.62;9.38;;;;;;;3.72;63.56;99878.70;1760743;81;21031;-60
2023/01/05 03:47:50;;;;;;;9.13;4.12;;;;;;;3.68;63.84;99867.64;1756350;81;21098;-59
2023/01/05 03:50:20;;;;;;;12.93;8.20;;;;;;;3.68;64.11;99858.98;1757201;80;21056;-60
2023/01/05 03:52:47;;;;;;;17.17;6.05;;;;;;;3.72;64.31;99850.08;1756649;81;21145;-59
2023/01/05 03:55:14;;;;;;;7.90;3.17;;;;;;;3.77;64.44;99832.42;1744776;81;21052;-59
2023/01/05 03:57:42;;;;;;;10.60;3.95;;;;;;;3.76;64.73;99835.11;1744476;81;21093;-60
2023/01/05 04:00:11;;;;;;;10.55;4.80;;;;;;;3.72;64.98;99831.39;1751931;81;21059;-60
2023/01/05 04:02:49;;;;;;;10.00;4.20;;;;;;;3.69;65.25;99820.33;1758129;81;21020;-59
2023/01/05 04:05:18;;;;;;;14.07;9.85;;;;;;;3.66;65.61;99816.61;1746717;81;21112;-59
2023/01/05 04:07:45;;;;;;;13.15;9.13;;;;;;;3.61;65.98;99807.77;1752210;81;21059;-59
2023/01/05 04:10:12;;;;;;;16.52;9.85;;;;;;;3.62;66.07;99794.33;1755579;81;21013;-60
2023/01/05 04:12:39;;;;;;;9.68;4.22;;;;;;;3.67;66.30;99786.60;1758394;81;21075;-60
2023/01/05 04:15:10;;;;;;;11.63;4.20;;;;;;;3.72;66.41;99780.64;1744973;81;21055;-61
2023/01/05 04:17:38;;;;;;;8.98;4.47;;;;;;;3.74;66.56;99783.63;1756686;80;21067;-60
2023/01/05 04:20:07;;;;;;;9.05;4.37;;;;;;;3.72;66.85;99766.81;1732453;81;21439;-61
2023/01/05 04:22:33;;;;;;;13.60;9.75;;;;;;;3.74;66.97;99759.73;1752009;80;21927;-62
2023/01/05 04:25:00;;;;;;;8.95;4.25;;;;;;;3.71;67.05;99760.75;1746632;80;21012;-63
2023/01/05 04:27:28;;;;;;;9.38;3.30;;;;;;;3.66;67.26;99756.30;1737965;80;21063;-61
2023/01/05 04:29:55;;;;;;;11.50;4.42;;;;;;;3.62;67.51;99755.30;1765987;80;21247;-61
2023/01/05 04:45:07;;;;;;;14.03;8.85;;;;;;;4.67;66.46;99698.69;1785572;79;22763;-60
2023/01/05 04:47:34;;;;;;;11.90;8.80;;;;;;;4.71;66.07;99693.66;1737638;80;21611;-60
2023/01/05 04:50:02;;;;;;;14.07;9.10;;;;;;;4.63;66.08;99691.55;1746599;80;21864;-60
2023/01/05 04:52:29;;;;;;;15.05;9.58;;;;;;;4.48;66.46;99673.02;1753388;80;21500;-60
2023/01/05 04:54:56;;;;;;;9.38;4.12;;;;;;;4.30;66.90;99660.73;1740288;81;21531;-60
2023/01/05 04:57:23;;;;;;;13.65;9.80;;;;;;;4.21;67.31;99652.23;1752468;81;21046;-60
2023/01/05 04:59:51;;;;;;;14.28;9.68;;;;;;;4.08;67.73;99649.14;1743906;81;21082;-59
2023/01/05 05:02:18;;;;;;;12.73;9.38;;;;;;;4.04;68.04;99641.14;1746480;80;21309;-60
2023/01/05 05:04:44;;;;;;;13.60;10.08;;;;;;;4.02;68.36;99633.08;1751286;80;21461;-61
2023/01/05 05:07:13;;;;;;;8.85;3.52;;;;;;;4.00;68.59;99642.73;1755288;80;21026;-60
2023/01/05 05:09:41;;;;;;;8.85;4.05;;;;;;;3.94;68.86;99623.15;1742706;80;21055;-61
2023/01/05 05:12:09;;;;;;;8.25;4.58;;;;;;;3.88;69.16;99613.98;1726286;82;21026;-60
2023/01/05 05:14:35;;;;;;;9.83;4.33;;;;;;;3.76;69.65;99636.05;1737317;80;21222;-60
2023/01/05 05:17:03;;;;;;;9.35;4.60;;;;;;;3.74;69.91;99617.92;1707216;82;21010;-60
2023/01/05 05:19:30;;;;;;;7.83;3.00;;;;;;;3.76;70.20;99615.22;1712816;81;21034;-61
2023/01/05 05:21:58;;;;;;;8.55;3.87;;;;;;;3.76;70.41;99604.34;1693627;84;21208;-61
2023/01/05 05:24:25;;;;;;;14.78;9.38;;;;;;;3.85;70.51;99593.35;1725472;81;21590;-60
2023/01/05 05:26:52;;;;;;;8.75;3.62;;;;;;;3.81;71.06;99602.27;1750228;81;21960;-60
2023/01/05 05:29:18;;;;;;;9.20;4.17;;;;;;;3.82;71.32;99590.95;1730849;81;21034;-60
2023/01/05 05:31:45;;;;;;;13.50;8.58;;;;;;;3.80;71.69;99604.53;1716476;82;21512;-61
2023/01/05 05:34:12;;;;;;;8.88;4.83;;;;;;;3.78;72.06;99576.45;1696190;83;21527;-61
2023/01/05 05:36:38;;;;;;;13.32;8.85;;;;;;;3.82;72.25;99585.73;1710068;83;21567;-61
2023/01/05 05:39:05;;;;;;;12.28;8.75;;;;;;;3.89;72.15;99582.27;1709559;83;21548;-62
2023/01/05 05:41:31;;;;;;;7.25;2.75;;;;;;;3.97;72.05;99576.10;1686469;82;21083;-61
2023/01/05 05:43:59;;;;;;;10.95;4.33;;;;;;;4.08;71.97;99561.06;1675184;83;21425;-61
2023/01/05 05:46:27;;;;;;;14.55;8.78;;;;;;;4.08;72.07;99566.27;1664858;84;21560;-61
2023/01/05 05:48:55;;;;;;;13.88;8.40;;;;;;;4.04;72.26;99552.63;1689797;83;21640;-61
2023/01/05 05:51:22;;;;;;;14.58;8.58;;;;;;;4.04;72.37;99557.02;1698384;82;21861;-61
2023/01/05 05:53:49;;;;;;;12.68;8.90;;;;;;;4.05;72.50;99550.41;1742385;80;20997;-62
2023/01/05 05:56:15;;;;;;;11.18;7.67;;;;;;;4.12;72.34;99548.23;1679363;83;21604;-61
2023/01/05 05:58:43;;;;;;;9.25;4.12;;;;;;;4.17;72.41;99529.22;1681177;82;21556;-62
2023/01/05 06:01:10;;;;;;;13.15;8.70;;;;;;;4.23;72.49;99526.66;1687867;83;21046;-62
2023/01/05 06:03:36;;;;;;;7.47;3.27;;;;;;;4.22;72.58;99507.61;1705408;83;21434;-62
2023/01/05 06:06:04;;;;;;;11.88;7.72;;;;;;;4.22;72.65;99498.50;1719998;82;21075;-60
2023/01/05 06:08:31;;;;;;;12.10;8.50;;;;;;;4.22;72.71;99503.70;1729885;80;21024;-60
2023/01/05 06:10:58;;;;;;;9.85;3.92;;;;;;;4.27;72.57;99500.32;1700713;82;21031;-60
2023/01/05 06:13:24;;;;;;;10.75;7.83;;;;;;;4.39;72.34;99497.83;1701855;82;21634;-61
2023/01/05 06:15:51;;;;;;;12.63;7.70;;;;;;;4.44;72.21;99500.47;1700447;83;21263;-61
2023/01/05 06:18:17;;;;;;;11.18;3.05;;;;;;;4.46;72.27;99491.25;1705186;82;21075;-61
2023/01/05 06:20:43;;;;;;;10.95;7.97;;;;;;;4.45;72.37;99481.75;1705268;83;21617;-61
2023/01/05 06:23:10;;;;;;;10.80;8.23;;;;;;;4.42;72.47;99490.63;1706840;82;22367;-61
2023/01/05 06:25:37;;;;;;;12.73;8.70;;;;;;;4.42;72.50;99480.66;1703431;83;21580;-61
2023/01/05 06:28:04;;;;;;;12.20;8.93;;;;;;;4.48;72.40;99475.03;1706428;82;21828;-60
2023/01/05 06:30:30;;;;;;;12.95;3.60;;;;;;;4.53;72.39;99458.61;1704338;83;21127;-59
2023/01/05 06:32:57;;;;;;;12.78;8.58;;;;;;;4.55;72.50;99472.84;1703295;82;21064;-60
2023/01/05 06:35:23;;;;;;;8.05;4.05;;;;;;;4.56;72.57;99468.83;1670976;84;21023;-60
2023/01/05 06:37:50;;;;;;;8.03;3.27;;;;;;;4.57;72.66;99464.44;1707636;83;21051;-61
2023/01/05 06:40:17;;;;;;;12.15;8.60;;;;;;;4.58;72.56;99461.73;1695566;83;21236;-61
2023/01/05 06:42:45;;;;;;;8.20;3.47;;;;;;;4.64;72.37;99457.88;1684644;84;21057;-61
2023/01/05 06:45:13;;;;;;;13.05;8.80;;;;;;;4.72;72.28;99454.72;1702441;83;21012;-62
2023/01/05 06:47:40;;;;;;;11.10;8.25;;;;;;;4.75;72.15;99454.02;1700175;82;21145;-61
2023/01/05 06:50:08;;;;;;;14.40;9.03;;;;;;;4.76;72.20;99447.06;1683022;84;21024;-61
2023/01/05 06:52:38;;;;;;;12.82;8.90;;;;;;;4.76;72.21;99432.25;1682782;83;21858;-61
2023/01/05 06:55:04;;;;;;;13.85;8.63;;;;;;;4.75;72.13;99434.48;1691004;82;21051;-61
2023/01/05 06:57:32;;;;;;;8.38;3.90;;;;;;;4.79;71.99;99440.30;1653346;86;21090;-61
2023/01/05 06:59:59;;;;;;;7.92;3.65;;;;;;;4.82;71.70;99437.48;1731237;81;21051;-61
2023/01/05 07:02:25;;;;;;;10.43;3.72;;;;;;;4.85;71.67;99430.75;1727613;80;21037;-61
2023/01/05 07:04:52;;;;;;;9.65;4.00;;;;;;;4.86;71.77;99415.48;1736190;81;21146;-61
2023/01/05 07:07:19;;;;;;;12.25;8.45;;;;;;;4.86;71.84;99419.84;1725871;80;21019;-61
2023/01/05 07:09:48;;;;;;;10.18;3.60;;;;;;;4.84;71.91;99409.52;1743439;81;21102;-62
2023/01/05 07:12:16;;;;;;;8.38;3.60;;;;;;;4.86;71.89;99423.30;1736461;80;21497;-61
2023/01/05 07:14:42;;;;;;;8.15;3.90;;;;;;;4.92;71.71;99404.59;1745738;82;20983;-62
2023/01/05 07:17:11;;;;;;;11.90;7.15;;;;;;;4.96;71.62;99395.62;1729759;80;21424;-61
2023/01/05 07:19:38;;;;;;;12.50;8.70;;;;;;;4.99;71.64;99388.03;1746996;81;21063;-61
2023/01/05 07:22:05;;;;;;;12.35;8.45;;;;;;;5.01;71.65;99384.88;1747768;82;21052;-62
2023/01/05 07:24:31;;;;;;;7.83;4.10;;;;;;;5.02;71.70;99387.82;1742347;80;21066;-61
2023/01/05 07:26:59;;;;;;;13.43;9.15;;;;;;;5.01;71.85;99388.30;1747326;82;21019;-60
2023/01/05 07:29:25;;;;;;;10.82;7.92;;;;;;;5.01;71.83;99380.96;1732413;80;22208;-60
2023/01/05 07:31:52;;;;;;;12.47;7.80;;;;;;;5.09;71.77;99381.69;1734507;81;21020;-60
2023/01/05 07:34:21;;;;;;;11.30;7.80;;;;;;;5.17;71.72;99381.48;1732522;82;21067;-62
2023/01/05 07:36:48;;;;;;;11.90;8.00;;;;;;;5.23;71.67;99365.02;1747777;81;21004;-62
2023/01/05 07:39:15;;;;;;;7.28;3.58;;;;;;;5.23;71.67;99365.02;1747615;80;21082;-62
2023/01/05 07:41:42;;;;;;;12.47;9.05;;;;;;;5.20;71.80;99363.00;1743131;80;21947;-62
2023/01/05 07:44:11;;;;;;;11.12;7.83;;;;;;;5.18;71.89;99358.86;1727129;81;21055;-62
2023/01/05 07:46:38;;;;;;;6.33;2.95;;;;;;;5.19;71.99;99350.92;1733932;80;21042;-63
2023/01/05 07:49:05;;;;;;;8.58;4.00;;;;;;;5.25;71.95;99354.02;1725141;81;21031;-61
2023/01/05 07:51:31;;;;;;;10.15;6.85;;;;;;;5.27;71.94;99341.20;1737814;81;21055;-63
2023/01/05 07:53:58;;;;;;;11.85;8.58;;;;;;;5.30;71.95;99334.46;1747539;80;21234;-60
2023/01/05 07:56:24;;;;;;;11.20;7.92;;;;;;;5.31;72.03;99333.53;1748712;81;21731;-61
2023/01/05 07:58:51;;;;;;;11.40;7.80;;;;;;;5.31;72.12;99331.37;1750715;81;21081;-61
2023/01/05 08:01:17;;;;;;;8.63;3.50;;;;;;;5.31;72.17;99335.28;1755669;80;21011;-60
2023/01/05 08:03:44;;;;;;;10.00;4.10;;;;;;;5.32;72.00;99328.66;1755364;81;21039;-61
2023/01/05 08:06:13;;;;;;;10.58;7.25;;;;;;;5.37;71.86;99328.31;1752971;81;21253;-61
2023/01/05 08:08:40;;;;;;;7.70;2.77;;;;;;;5.39;71.74;99324.63;1747883;80;21055;-61
2023/01/05 08:11:09;;;;;;;13.43;8.05;;;;;;;5.44;71.68;99332.11;1726355;82;21030;-60
2023/01/05 08:16:23;;;;;;;12.65;8.30;;;;;;;5.42;71.64;99313.63;1709683;82;21511;-61
2023/01/05 08:18:49;;;;;;;12.13;4.62;;;;;;;5.38;71.54;99312.55;1705906;83;21884;-59
2023/01/05 08:21:16;;;;;;;10.63;7.87;;;;;;;5.42;71.30;99322.75;1666917;83;22006;-62
2023/01/05 08:23:44;;;;;;;7.75;3.72;;;;;;;5.47;71.07;99318.02;1706671;82;21627;-61
2023/01/05 08:26:14;;;;;;;10.20;6.97;;;;;;;5.50;70.94;99300.34;1684908;83;21027;-59
2023/01/05 08:28:41;;;;;;;10.80;7.92;;;;;;;5.52;70.86;99302.84;1706370;83;21596;-60
2023/01/05 08:31:12;;;;;;;11.10;7.85;;;;;;;5.52;70.77;99297.63;1704986;82;21144;-60
2023/01/05 08:33:39;;;;;;;11.75;8.05;;;;;;;5.48;70.67;99298.34;1699004;83;21087;-62
2023/01/05 08:36:12;;;;;;;12.07;7.55;;;;;;;5.52;70.57;99286.70;1682281;83;21032;-61
2023/01/05 08:38:46;;;;;;;8.08;3.87;;;;;;;5.60;70.28;99279.60;1682148;83;21051;-61
2023/01/05 08:41:09;;;;;;;11.95;7.97;;;;;;;5.66;70.06;99273.06;1703994;83;21298;-61
2023/01/05 08:43:35;;;;;;;14.05;7.70;;;;;;;5.67;70.13;99271.65;1708060;82;21247;-61
2023/01/05 08:46:02;;;;;;;7.65;3.77;;;;;;;5.67;69.98;99261.20;1693876;83;21143;-62
2023/01/05 08:48:30;;;;;;;11.63;7.47;;;;;;;5.68;69.75;99264.64;1688399;83;21120;-61
2023/01/05 08:51:06;;;;;;;9.03;3.70;;;;;;;5.65;69.75;99263.11;1690974;83;21119;-62
2023/01/05 08:53:29;;;;;;;13.18;7.83;;;;;;;5.68;69.39;99251.14;1689983;84;21170;-62
2023/01/05 08:55:56;;;;;;;11.35;7.70;;;;;;;5.74;69.17;99255.04;1692563;83;21360;-60
2023/01/05 08:58:22;;;;;;;13.62;8.83;;;;;;;5.81;68.97;99248.38;1690469;84;21060;-62
2023/01/05 09:00:49;;;;;;;9.80;7.12;;;;;;;5.84;68.81;99232.97;1693880;83;21092;-61
2023/01/05 09:03:15;;;;;;;11.22;7.50;;;;;;;5.86;68.78;99238.89;1688555;83;21653;-61
2023/01/05 09:05:42;;;;;;;13.40;8.05;;;;;;;5.89;68.82;99239.95;1693616;84;21609;-61
2023/01/05 09:08:09;;;;;;;14.55;7.97;;;;;;;5.90;68.71;99235.07;1691031;84;21174;-61
2023/01/05 09:10:36;;;;;;;13.28;8.23;;;;;;;5.94;68.77;99232.10;1689879;84;21058;-61
2023/01/05 09:13:03;;;;;;;12.53;7.75;;;;;;;6.04;68.58;99223.10;1693565;84;21117;-62
2023/01/05 09:15:30;;;;;;;13.38;7.80;;;;;;;6.13;68.48;99216.31;1685607;84;21063;-60
2023/01/05 09:17:57;;;;;;;10.70;7.28;;;;;;;6.21;68.38;99211.78;1686649;84;21113;-62
2023/01/05 09:20:23;;;;;;;9.83;6.90;;;;;;;6.22;68.28;99204.28;1686003;83;21165;-62
2023/01/05 09:22:50;;;;;;;12.78;8.55;;;;;;;6.23;68.32;99192.41;1692580;83;20997;-62
2023/01/05 09:25:17;;;;;;;7.60;3.25;;;;;;;6.25;68.35;99189.67;1692266;84;21127;-60
2023/01/05 09:27:43;;;;;;;9.95;6.83;;;;;;;6.26;68.25;99187.42;1692191;83;21066;-62
2023/01/05 09:30:14;;;;;;;9.25;6.53;;;;;;;6.28;68.30;99191.55;1691506;84;21048;-62
2023/01/05 09:32:41;;;;;;;9.78;6.22;;;;;;;6.41;68.15;99171.80;1687507;83;21100;-63
2023/01/05 09:35:08;;;;;;;14.05;7.97;;;;;;;6.54;68.00;99174.70;1689792;84;21094;-61
2023/01/05 09:37:34;;;;;;;11.00;7.22;;;;;;;6.65;67.80;99168.94;1692149;84;21008;-60
2023/01/05 09:40:02;;;;;;;10.55;7.10;;;;;;;6.68;67.85;99176.52;1687746;83;21083;-63
2023/01/05 09:42:31;;;;;;;10.75;7.05;;;;;;;6.72;67.49;99168.44;1693903;84;21059;-60
2023/01/05 09:45:01;;;;;;;10.68;7.22;;;;;;;6.72;67.52;99153.56;1681907;84;21494;-61
2023/01/05 09:47:33;;;;;;;10.30;6.67;;;;;;;6.74;67.65;99155.59;1709528;82;22054;-62
2023/01/05 09:49:59;;;;;;;12.03;6.25;;;;;;;6.78;67.67;99147.83;1690828;84;21099;-62
2023/01/05 09:52:26;;;;;;;10.32;5.80;;;;;;;6.88;67.65;99150.02;1692192;84;21103;-62
2023/01/05 09:54:54;;;;;;;10.98;6.37;;;;;;;6.96;67.66;99138.07;1700324;82;21103;-61
2023/01/05 09:57:25;;;;;;;11.93;6.15;;;;;;;6.97;67.55;99143.66;1703103;83;21261;-61
2023/01/05 09:59:57;;;;;;;11.22;6.08;;;;;;;6.97;67.73;99139.74;1707025;83;21106;-60
2023/01/05 10:02:55;;;;;;;10.18;6.22;;;;;;;6.96;67.80;99130.23;1707472;83;21076;-61
2023/01/05 10:09:59;;;;;;;8.98;5.47;;;;;;;6.95;68.65;99107.18;1795807;78;22638;-61
2023/01/05 10:15:20;;;;;;;8.60;5.47;;;;;;;7.13;68.13;99111.33;1691223;84;21245;-61
2023/01/05 10:17:47;;;;;;;10.65;5.45;;;;;;;7.14;68.30;99109.03;1660029;86;21114;-62
2023/01/05 10:20:42;;;;;;;9.15;6.15;;;;;;;7.14;68.39;99109.53;1692339;81;21067;-61
2023/01/05 10:23:32;;;;;;;10.88;6.12;;;;;;;7.21;68.41;99102.34;1723028;83;21658;-60
2023/01/05 10:26:07;;;;;;;10.30;6.80;;;;;;;7.24;68.34;99103.36;1721376;82;21571;-61
2023/01/05 10:28:45;;;;;;;10.25;5.83;;;;;;;7.24;68.51;99104.66;1726394;81;21262;-62
2023/01/05 10:31:41;;;;;;;10.05;6.72;;;;;;;7.21;68.58;99092.33;1734288;81;20995;-61
2023/01/05 10:34:29;;;;;;;8.95;5.17;;;;;;;7.18;68.67;99087.39;1721015;83;21023;-61
2023/01/05 10:37:34;;;;;;;7.60;2.58;;;;;;;7.19;68.78;99074.14;1689822;83;21067;-60
2023/01/05 10:40:27;;;;;;;10.70;5.90;;;;;;;7.24;68.73;99069.34;1716848;83;21019;-60
2023/01/05 10:43:42;;;;;;;9.65;6.28;;;;;;;7.29;68.63;99067.64;1709400;83;21217;-60
2023/01/05 10:46:10;;;;;;;10.70;6.62;;;;;;;7.27;68.60;99068.26;1661634;83;21089;-60
2023/01/05 10:48:36;;;;;;;12.03;6.85;;;;;;;7.22;68.72;99064.73;1722810;83;21082;-63
2023/01/05 10:51:03;;;;;;;10.28;5.75;;;;;;;7.21;68.83;99067.48;1711977;82;21067;-61
2023/01/05 10:53:30;;;;;;;9.60;5.87;;;;;;;7.22;68.84;99056.87;1733470;82;21065;-61
2023/01/05 10:56:15;;;;;;;10.70;5.80;;;;;;;7.30;68.72;99050.98;1661325;82;21300;-61
2023/01/05 10:58:43;;;;;;;6.00;2.22;;;;;;;7.39;68.66;99047.55;1734754;82;21104;-61
2023/01/05 11:01:26;;;;;;;9.68;5.72;;;;;;;7.48;68.60;99047.24;1722629;83;21035;-61
2023/01/05 11:04:08;;;;;;;8.95;5.37;;;;;;;7.52;68.52;99043.87;1727665;81;21528;-63
2023/01/05 11:06:36;;;;;;;10.53;5.65;;;;;;;7.51;68.44;99041.71;1705391;82;21621;-61
2023/01/05 11:09:20;;;;;;;12.35;6.85;;;;;;;7.49;68.48;99049.37;1714530;82;22214;-61
2023/01/05 11:12:01;;;;;;;11.20;6.70;;;;;;;7.44;68.58;99040.61;1705115;84;21791;-59
2023/01/05 11:14:31;;;;;;;9.85;6.00;;;;;;;7.56;68.38;99036.08;1773428;80;21039;-60
2023/01/05 11:17:06;;;;;;;8.63;5.50;;;;;;;7.62;68.20;99025.88;1754867;80;21039;-60
2023/01/05 11:19:35;;;;;;;8.43;5.60;;;;;;;7.61;67.88;99029.45;1743027;82;21039;-62
2023/01/05 11:22:01;;;;;;;10.90;5.20;;;;;;;7.60;67.83;99022.58;1742859;80;21256;-59
2023/01/05 11:24:33;;;;;;;8.50;4.92;;;;;;;7.59;67.90;99028.77;1742572;82;21103;-62
2023/01/05 11:27:04;;;;;;;9.13;4.28;;;;;;;7.58;67.78;99018.44;1742649;81;21079;-62
2023/01/05 11:29:30;;;;;;;10.58;4.70;;;;;;;7.65;67.65;99029.19;1742854;81;21016;-61
2023/01/05 11:32:04;;;;;;;7.35;4.47;;;;;;;7.68;67.59;99024.98;1763784;80;21098;-60
2023/01/05 11:34:45;;;;;;;11.05;5.28;;;;;;;7.70;67.67;99031.75;1746402;80;21904;-60
2023/01/05 11:37:29;;;;;;;8.35;4.90;;;;;;;7.69;67.56;99018.80;1743538;80;21023;-60
2023/01/05 11:40:00;;;;;;;8.90;5.40;;;;;;;7.67;67.66;99012.88;1754660;80;21016;-61
2023/01/05 11:42:30;;;;;;;8.08;4.28;;;;;;;7.60;67.89;99016.53;1773339;80;21720;-61
2023/01/05 11:45:00;;;;;;;8.18;4.03;;;;;;;7.69;67.86;99008.33;1773288;80;21785;-61
2023/01/05 11:47:37;;;;;;;7.80;4.78;;;;;;;7.77;67.68;99001.42;1751694;80;21885;-62
2023/01/05 11:50:15;;;;;;;8.05;4.55;;;;;;;7.82;67.53;99002.33;1762163;80;21040;-61
2023/01/05 11:52:44;;;;;;;7.35;4.28;;;;;;;7.80;67.58;99008.16;1734471;82;21107;-59
2023/01/05 11:55:39;;;;;;;6.95;4.17;;;;;;;7.79;67.69;99002.60;1734234;82;21595;-60
2023/01/05 11:58:25;;;;;;;7.33;4.42;;;;;;;7.80;67.73;99004.23;1760647;80;21086;-59
2023/01/05 12:01:31;;;;;;;6.83;3.83;;;;;;;7.83;67.68;98998.72;1749463;80;21258;-61
2023/01/05 12:04:26;;;;;;;7.28;4.03;;;;;;;7.89;67.51;99003.91;1762072;80;21035;-60
2023/01/05 12:07:02;;;;;;;6.25;3.67;;;;;;;7.91;67.58;98998.04;1766127;80;21098;-60
2023/01/05 12:09:36;;;;;;;6.53;3.83;;;;;;;7.89;67.66;98991.62;1748970;80;21624;-60
2023/01/05 12:12:49;;;;;;;7.15;3.87;;;;;;;7.90;67.77;98988.05;1743687;80;21050;-60
2023/01/05 12:15:45;;;;;;;9.03;3.98;;;;;;;7.89;67.77;98982.47;1748974;80;21209;-61
2023/01/05 12:18:42;;;;;;;7.87;1.90;;;;;;;7.93;67.76;98981.20;1738816;82;21051;-60
2023/01/05 12:21:26;;;;;;;7.33;4.47;;;;;;;8.00;67.71;98976.23;1754725;80;21059;-60
2023/01/05 12:24:13;;;;;;;8.18;4.65;;;;;;;8.07;67.70;98971.25;1753843;80;21032;-60
2023/01/05 12:26:54;;;;;;;10.98;4.05;;;;;;;8.10;67.66;98976.22;1770887;80;21532;-59
2023/01/05 12:32:34;;;;;;;8.23;4.65;;;;;;;7.82;68.89;98963.05;1795188;78;22028;-61
2023/01/05 12:35:23;;;;;;;7.33;4.25;;;;;;;8.01;68.30;98971.34;1776627;79;21062;-61
2023/01/05 12:38:25;;;;;;;6.10;3.80;;;;;;;7.97;68.41;98962.13;1776914;80;21120;-61
2023/01/05 12:41:15;;;;;;;7.37;3.83;;;;;;;7.96;68.50;98958.66;1786565;80;20951;-59
2023/01/05 12:44:40;;;;;;;6.97;3.70;;;;;;;8.03;68.53;98950.25;1777341;80;21059;-60
2023/01/05 12:47:21;;;;;;;7.75;4.03;;;;;;;8.10;68.57;98952.17;1779686;80;21124;-60
2023/01/05 12:49:56;;;;;;;8.58;4.50;;;;;;;8.14;68.57;98953.53;1774127;80;21145;-60
2023/01/05 12:52:35;;;;;;;7.65;4.17;;;;;;;8.12;68.71;98955.93;1776940;80;21202;-59
2023/01/05 12:55:24;;;;;;;6.65;3.50;;;;;;;8.12;68.84;98956.78;1776696;80;21092;-60